createdAt,value
2023-04-05T00:02:44.060Z,102129.63
2023-04-05T00:06:46.832Z,102131.13
2023-04-05T00:10:49.735Z,102122.53
2023-04-05T00:14:52.447Z,102120.50
2023-04-05T00:18:58.362Z,102122.00
2023-04-05T00:23:01.129Z,102123.47
2023-04-05T00:27:03.947Z,102119.75
2023-04-05T00:31:07.076Z,102110.47
2023-04-05T00:35:11.471Z,102107.09
2023-04-05T00:39:14.510Z,102108.41
2023-04-05T00:43:17.219Z,102103.56
2023-04-05T00:47:20.012Z,102107.72
2023-04-05T00:51:26.607Z,102105.50
2023-04-05T00:55:29.882Z,102101.59
2023-04-05T00:59:32.671Z,102093.19
2023-04-05T01:03:37.094Z,102085.78
2023-04-05T01:07:47.542Z,102086.25
2023-04-05T01:11:52.230Z,102080.81
2023-04-05T01:15:55.106Z,102092.03
2023-04-05T01:20:00.137Z,102095.06
2023-04-05T01:24:21.109Z,102078.84
2023-04-05T01:28:41.816Z,102081.34
2023-04-05T01:32:56.314Z,102078.97
2023-04-05T01:37:04.731Z,102077.47
2023-04-05T01:41:07.752Z,102073.22
2023-04-05T01:45:11.080Z,102066.50
2023-04-05T01:49:15.624Z,102066.13
2023-04-05T01:53:18.705Z,102070.94
2023-04-05T01:57:21.515Z,102057.16
2023-04-05T02:01:24.734Z,102066.69
2023-04-05T02:05:29.117Z,102060.94
2023-04-05T02:09:31.825Z,102062.22
2023-04-05T02:13:34.601Z,102062.88
2023-04-05T02:17:40.277Z,102060.47
2023-04-05T02:21:46.158Z,102057.41
2023-04-05T02:25:48.961Z,102057.06
2023-04-05T02:29:55.775Z,102050.28
2023-04-05T02:34:00.993Z,102052.44
2023-04-05T02:38:05.624Z,102044.88
2023-04-05T02:42:10.124Z,102044.47
2023-04-05T02:46:12.997Z,102041.25
2023-04-05T02:50:20.500Z,102043.41
2023-04-05T02:54:25.083Z,102033.66
2023-04-05T02:58:33.998Z,102038.47
2023-04-05T03:02:39.828Z,102037.13
2023-04-05T03:06:51.007Z,102034.03
2023-04-05T03:10:57.369Z,102031.66
2023-04-05T03:15:00.247Z,102038.19
2023-04-05T03:19:10.185Z,102026.09
2023-04-05T03:23:17.287Z,102036.09
2023-04-05T03:27:23.029Z,102029.50
2023-04-05T03:31:52.963Z,102035.34
2023-04-05T03:35:58.890Z,102024.72
2023-04-05T03:40:05.212Z,102033.09
2023-04-05T03:44:10.013Z,102030.00
2023-04-05T03:48:12.941Z,102030.31
2023-04-05T03:52:15.855Z,102020.88
2023-04-05T03:56:21.368Z,102021.19
2023-04-05T04:00:27.401Z,102020.81
2023-04-05T04:04:56.388Z,102018.44
2023-04-05T04:08:59.166Z,102013.50
2023-04-05T04:13:02.071Z,102020.88
2023-04-05T04:17:09.836Z,102006.91
2023-04-05T04:21:32.530Z,102011.56
2023-04-05T04:25:54.945Z,102017.38
2023-04-05T04:30:25.602Z,102005.97
2023-04-05T04:34:46.637Z,102009.94
2023-04-05T04:39:07.970Z,102010.41
2023-04-05T04:43:27.583Z,102006.16
2023-04-05T04:47:54.822Z,102006.47
2023-04-05T04:52:10.533Z,102005.91
2023-04-05T04:56:15.301Z,102007.75
2023-04-05T05:00:18.898Z,102010.72
2023-04-05T05:04:22.933Z,102010.84
2023-04-05T05:08:27.265Z,102013.69
2023-04-05T05:12:31.347Z,102006.78
2023-04-05T05:16:34.526Z,102008.63
2023-04-05T05:20:37.468Z,102006.78
2023-04-05T05:24:42.566Z,102010.31
2023-04-05T05:28:45.978Z,102010.72
2023-04-05T05:32:48.861Z,102002.94
2023-04-05T05:36:53.542Z,102001.78
2023-04-05T05:40:58.697Z,101998.69
2023-04-05T05:45:04.421Z,101996.53
2023-04-05T05:49:07.244Z,102003.44
2023-04-05T05:53:10.010Z,101999.63
2023-04-05T05:57:14.260Z,101994.09
2023-04-05T06:01:17.070Z,102000.84
2023-04-05T06:05:19.870Z,101993.22
2023-04-05T06:09:23.211Z,101995.44
2023-04-05T06:13:27.483Z,102001.19
2023-04-05T06:17:30.375Z,101999.34
2023-04-05T06:21:33.191Z,102002.28
2023-04-05T06:25:36.357Z,102003.19
2023-04-05T06:29:40.491Z,102002.59
2023-04-05T06:33:43.461Z,102005.50
2023-04-05T06:37:46.210Z,102003.06
2023-04-05T06:41:49.065Z,102010.66
2023-04-05T06:45:53.221Z,102005.22
2023-04-05T06:49:56.116Z,102011.03
2023-04-05T06:53:59.077Z,102010.50
2023-04-05T06:58:01.830Z,102011.66
2023-04-05T07:02:06.030Z,102003.03
2023-04-05T07:06:09.751Z,102010.16
2023-04-05T07:10:12.794Z,102006.59
2023-04-05T07:14:15.995Z,101995.81
2023-04-05T07:18:20.480Z,101998.31
2023-04-05T07:22:23.228Z,101992.16
2023-04-05T07:26:26.993Z,101984.06
2023-04-05T07:30:30.121Z,101991.81
2023-04-05T07:34:34.314Z,101978.19
2023-04-05T07:38:37.143Z,101983.66
2023-04-05T07:42:40.860Z,101986.53
2023-04-05T07:46:46.897Z,101977.63
2023-04-05T07:50:53.013Z,101977.78
2023-04-05T07:54:56.198Z,101979.47
2023-04-05T07:58:59.730Z,101980.13
2023-04-05T08:03:02.947Z,101969.34
2023-04-05T08:07:07.119Z,101972.66
2023-04-05T08:11:09.977Z,101964.16
2023-04-05T08:15:12.660Z,101964.91
2023-04-05T08:19:21.664Z,101956.13
2023-04-05T08:23:27.084Z,101970.31
2023-04-05T08:27:29.844Z,101978.06
2023-04-05T08:31:33.914Z,101968.38
2023-04-05T08:35:38.250Z,101965.81
2023-04-05T08:39:42.452Z,101965.38
2023-04-05T08:43:54.611Z,101969.72
2023-04-05T08:47:57.542Z,101959.16
2023-04-05T08:52:02.055Z,101952.59
2023-04-05T08:56:07.991Z,101958.00
2023-04-05T09:00:12.232Z,101952.69
2023-04-05T09:04:18.308Z,101945.53
2023-04-05T09:08:22.333Z,101960.81
2023-04-05T09:12:28.088Z,101952.22
2023-04-05T09:16:31.217Z,101949.63
2023-04-05T09:20:34.333Z,101957.22
2023-04-05T09:24:40.854Z,101948.41
2023-04-05T09:28:45.005Z,101949.63
2023-04-05T09:32:48.499Z,101951.22
2023-04-05T09:36:51.311Z,101942.84
2023-04-05T09:40:54.031Z,101935.66
2023-04-05T09:45:08.593Z,101946.31
2023-04-05T09:49:33.798Z,101944.56
2023-04-05T09:53:36.523Z,101937.31
2023-04-05T09:57:40.432Z,101929.84
2023-04-05T10:01:45.794Z,101934.41
2023-04-05T10:05:56.066Z,101937.13
2023-04-05T10:09:59.077Z,101927.75
2023-04-05T10:14:03.866Z,101922.88
2023-04-05T10:18:14.542Z,101919.63
2023-04-05T10:22:24.836Z,101920.94
2023-04-05T10:26:37.521Z,101915.97
2023-04-05T10:30:44.159Z,101910.47
2023-04-05T10:34:58.041Z,101907.31
2023-04-05T10:39:04.419Z,101904.72
2023-04-05T10:43:16.543Z,101900.16
2023-04-05T10:47:20.862Z,101896.16
2023-04-05T10:51:27.659Z,101892.34
2023-04-05T10:55:31.458Z,101894.25
2023-04-05T10:59:35.458Z,101891.06
2023-04-05T11:03:48.921Z,101881.25
2023-04-05T11:07:56.402Z,101879.31
2023-04-05T11:11:59.280Z,101869.31
2023-04-05T11:16:11.377Z,101870.75
2023-04-05T11:20:14.200Z,101860.38
2023-04-05T11:24:19.588Z,101858.31
2023-04-05T11:28:25.092Z,101858.63
2023-04-05T11:32:40.156Z,101859.94
2023-04-05T11:36:46.045Z,101857.75
2023-04-05T11:40:50.404Z,101858.94
2023-04-05T11:44:54.572Z,101842.63
2023-04-05T11:48:58.105Z,101852.22
2023-04-05T11:53:12.285Z,101840.84
2023-04-05T11:57:20.089Z,101843.88
2023-04-05T12:01:22.820Z,101838.56
2023-04-05T12:05:25.627Z,101824.28
2023-04-05T12:09:28.428Z,101832.66
2023-04-05T12:13:35.344Z,101827.53
2023-04-05T12:17:42.421Z,101820.06
2023-04-05T12:21:45.792Z,101815.00
2023-04-05T12:25:49.541Z,101806.66
2023-04-05T12:30:11.792Z,101808.41
2023-04-05T12:34:15.894Z,101803.84
2023-04-05T12:38:18.818Z,101798.41
2023-04-05T12:42:23.372Z,101801.16
2023-04-05T12:46:40.517Z,101800.63
2023-04-05T12:50:44.861Z,101794.59
2023-04-05T12:54:54.886Z,101782.78
2023-04-05T12:58:57.719Z,101774.59
2023-04-05T13:03:02.046Z,101765.06
2023-04-05T13:07:04.890Z,101765.75
2023-04-05T13:11:07.724Z,101765.09
2023-04-05T13:15:11.160Z,101757.34
2023-04-05T13:19:15.413Z,101748.16
2023-04-05T13:23:18.177Z,101737.19
2023-04-05T13:27:21.681Z,101734.78
2023-04-05T13:31:24.581Z,101723.28
2023-04-05T13:35:28.794Z,101727.34
2023-04-05T13:39:31.552Z,101719.00
2023-04-05T13:43:34.270Z,101717.16
2023-04-05T13:47:37.243Z,101711.50
2023-04-05T13:51:41.871Z,101712.25
2023-04-05T13:55:44.710Z,101706.78
2023-04-05T13:59:47.615Z,101706.88
2023-04-05T14:03:50.765Z,101702.69
2023-04-05T14:07:54.987Z,101704.00
2023-04-05T14:12:02.669Z,101698.69
2023-04-05T14:16:06.093Z,101691.97
2023-04-05T14:20:09.545Z,101697.66
2023-04-05T14:24:13.880Z,101683.88
2023-04-05T14:28:16.670Z,101677.97
2023-04-05T14:32:19.571Z,101667.59
2023-04-05T14:36:22.524Z,101670.03
2023-04-05T14:40:26.821Z,101674.44
2023-04-05T14:44:29.679Z,101672.09
2023-04-05T14:48:33.977Z,101667.84
2023-04-05T14:52:37.357Z,101658.69
2023-04-05T14:56:41.541Z,101651.00
2023-04-05T15:00:44.575Z,101646.03
2023-04-05T15:04:47.340Z,101643.03
2023-04-05T15:08:50.113Z,101636.63
2023-04-05T15:12:54.351Z,101640.59
2023-04-05T15:16:57.307Z,101635.50
2023-04-05T15:21:01.062Z,101642.19
2023-04-05T15:25:03.970Z,101625.06
2023-04-05T15:29:08.207Z,101642.22
2023-04-05T15:33:11.113Z,101625.09
2023-04-05T15:37:14.046Z,101631.47
2023-04-05T15:41:16.860Z,101626.78
2023-04-05T15:45:21.128Z,101636.97
2023-04-05T15:49:23.949Z,101626.66
2023-04-05T15:53:27.863Z,101627.28
2023-04-05T15:57:30.738Z,101624.59
2023-04-05T16:01:37.945Z,101615.66
2023-04-05T16:05:52.815Z,101626.06
2023-04-05T16:10:12.682Z,101605.66
2023-04-05T16:14:37.218Z,101613.59
2023-04-05T16:19:27.256Z,101619.53
2023-04-05T16:24:13.882Z,101601.38
2023-04-05T16:28:43.887Z,101604.34
2023-04-05T16:33:22.126Z,101602.59
2023-04-05T16:38:09.021Z,101595.34
2023-04-05T16:42:58.345Z,101592.34
2023-04-05T16:47:48.658Z,101597.31
2023-04-05T16:52:35.782Z,101591.22
2023-04-05T16:57:17.488Z,101595.00
2023-04-05T17:01:47.031Z,101585.84
2023-04-05T17:05:56.596Z,101581.66
2023-04-05T17:10:00.701Z,101589.66
2023-04-05T17:14:05.557Z,101596.69
2023-04-05T17:18:09.991Z,101594.09
2023-04-05T17:22:17.661Z,101582.69
2023-04-05T17:26:23.118Z,101594.91
2023-04-05T17:30:27.716Z,101585.59
2023-04-05T17:34:34.610Z,101596.06
2023-04-05T17:38:37.603Z,101591.75
2023-04-05T17:42:40.693Z,101591.38
2023-04-05T17:46:51.163Z,101588.09
2023-04-05T17:50:59.121Z,101592.75
2023-04-05T17:55:02.674Z,101585.09
2023-04-05T17:59:06.660Z,101582.00
2023-04-05T18:03:10.094Z,101583.94
2023-04-05T18:07:14.618Z,101598.00
2023-04-05T18:11:17.626Z,101596.28
2023-04-05T18:15:20.728Z,101591.91
2023-04-05T18:19:23.642Z,101595.47
2023-04-05T18:23:28.446Z,101586.56
2023-04-05T18:27:32.505Z,101591.00
2023-04-05T18:31:36.935Z,101590.19
2023-04-05T18:35:49.706Z,101603.97
2023-04-05T18:39:53.997Z,101598.78
2023-04-05T18:43:59.242Z,101601.53
2023-04-05T18:48:03.320Z,101606.13
2023-04-05T18:52:06.244Z,101617.63
2023-04-05T18:56:10.967Z,101612.38
2023-04-05T19:00:16.865Z,101615.50
2023-04-05T19:04:20.072Z,101618.63
2023-04-05T19:08:23.193Z,101623.81
2023-04-05T19:12:27.674Z,101624.00
2023-04-05T19:16:31.028Z,101624.56
2023-04-05T19:20:34.319Z,101623.88
2023-04-05T19:24:40.758Z,101628.78
2023-04-05T19:28:47.183Z,101617.00
2023-04-05T19:32:54.495Z,101614.84
2023-04-05T19:36:59.837Z,101618.53
2023-04-05T19:41:02.785Z,101616.81
2023-04-05T19:45:10.794Z,101610.78
2023-04-05T19:49:39.009Z,101625.09
2023-04-05T19:53:51.625Z,101617.13
2023-04-05T19:57:54.940Z,101621.19
2023-04-05T20:02:00.401Z,101625.66
2023-04-05T20:06:07.076Z,101620.84
2023-04-05T20:10:16.426Z,101627.41
2023-04-05T20:14:28.033Z,101626.06
2023-04-05T20:18:32.559Z,101628.72
2023-04-05T20:22:35.908Z,101621.75
2023-04-05T20:26:39.490Z,101611.25
2023-04-05T20:30:42.981Z,101612.59
2023-04-05T20:34:49.253Z,101616.25
2023-04-05T20:38:52.338Z,101607.81
2023-04-05T20:42:56.452Z,101618.63
2023-04-05T20:47:00.541Z,101605.81
2023-04-05T20:51:07.643Z,101598.84
2023-04-05T20:55:11.079Z,101596.88
2023-04-05T20:59:14.657Z,101595.59
2023-04-05T21:03:17.933Z,101595.94
2023-04-05T21:07:22.312Z,101588.88
2023-04-05T21:11:27.094Z,101592.59
2023-04-05T21:15:32.125Z,101591.09
2023-04-05T21:19:36.141Z,101576.69
2023-04-05T21:23:49.116Z,101574.91
2023-04-05T21:27:53.101Z,101572.72
2023-04-05T21:31:56.279Z,101572.41
2023-04-05T21:35:59.527Z,101575.03
2023-04-05T21:40:04.530Z,101576.59
2023-04-05T21:44:07.605Z,101573.59
2023-04-05T21:48:10.607Z,101576.69
2023-04-05T21:52:13.691Z,101576.38
2023-04-05T21:56:19.009Z,101579.81
2023-04-05T22:00:22.418Z,101581.38
2023-04-05T22:04:26.518Z,101573.03
2023-04-05T22:08:29.756Z,101564.44
2023-04-05T22:12:35.597Z,101565.19
2023-04-05T22:16:38.713Z,101575.84
2023-04-05T22:20:42.577Z,101570.16
2023-04-05T22:24:46.256Z,101570.91
2023-04-05T22:28:51.030Z,101565.03
2023-04-05T22:32:54.976Z,101554.78
2023-04-05T22:36:57.855Z,101553.00
2023-04-05T22:41:06.505Z,101550.00
2023-04-05T22:45:16.679Z,101552.25
2023-04-05T22:49:28.092Z,101550.25
2023-04-05T22:53:44.765Z,101546.63
2023-04-05T22:58:02.830Z,101547.31
2023-04-05T23:03:01.676Z,101547.84
2023-04-05T23:23:49.971Z,101531.34
2023-04-05T23:28:30.560Z,101525.81
2023-04-05T23:49:15.943Z,101504.78
2023-04-05T23:53:56.355Z,101501.75
2023-04-05T23:58:31.853Z,101488.69
